Time;durP1;ratioP1;P1;durP2;ratioP2;P2;SDS_P1;SDS_P2;PMS_P1;PMS_P2;Temp;Humidity;BMP_temperature;BMP_pressure;BME280_temperature;BME280_humidity;BME280_pressure;Samples;Min_cycle;Max_cycle;Signal;HPM_P1;HPM_P2
2023/06/29 00:01:11;;;;;;;47.35;28.08;;;18.70;99.90;;;;;;4957335;28;20039;-57
2023/06/29 00:03:41;;;;;;;48.65;29.48;;;18.70;99.90;;;;;;4957524;28;20043;-56
2023/06/29 00:06:07;;;;;;;52.45;30.30;;;18.70;99.90;;;;;;4960543;28;20085;-57
2023/06/29 00:08:36;;;;;;;46.75;29.42;;;18.70;99.90;;;;;;4960586;28;20062;-56
2023/06/29 00:11:03;;;;;;;43.42;28.55;;;18.70;99.90;;;;;;4941759;28;20047;-57
2023/06/29 00:13:29;;;;;;;47.10;29.98;;;18.60;99.90;;;;;;4957642;28;20043;-55
2023/06/29 00:15:54;;;;;;;45.00;28.10;;;18.70;99.90;;;;;;4958636;28;20041;-56
2023/06/29 00:18:20;;;;;;;45.15;29.33;;;18.70;99.90;;;;;;4961387;28;20035;-57
2023/06/29 00:20:46;;;;;;;48.58;29.45;;;18.70;99.90;;;;;;4958992;28;20428;-57
2023/06/29 00:23:11;;;;;;;46.97;29.75;;;18.70;99.90;;;;;;4956460;28;20475;-57
2023/06/29 00:25:44;;;;;;;47.38;29.80;;;18.60;99.90;;;;;;4962048;28;20073;-57
2023/06/29 00:28:10;;;;;;;50.60;31.67;;;18.70;99.90;;;;;;4959478;28;20126;-57
2023/06/29 00:30:36;;;;;;;47.92;30.48;;;18.70;99.90;;;;;;4955460;28;20085;-57
2023/06/29 00:33:02;;;;;;;52.10;31.73;;;18.60;99.90;;;;;;4960084;28;20043;-57
2023/06/29 00:35:27;;;;;;;48.72;29.80;;;18.70;99.90;;;;;;4960632;28;20130;-57
2023/06/29 00:37:53;;;;;;;48.25;31.63;;;18.70;99.90;;;;;;4957754;28;20174;-55
2023/06/29 00:40:19;;;;;;;49.22;30.08;;;18.70;99.90;;;;;;4941396;28;20097;-55
2023/06/29 00:42:45;;;;;;;45.85;29.58;;;18.60;99.90;;;;;;4956396;28;20488;-57
2023/06/29 00:45:10;;;;;;;47.08;30.95;;;18.70;99.90;;;;;;4956281;28;20090;-57
2023/06/29 00:47:36;;;;;;;46.30;29.10;;;18.60;99.90;;;;;;4955542;28;20101;-57
2023/06/29 00:50:03;;;;;;;49.45;31.50;;;18.70;99.90;;;;;;4937401;28;20043;-55
2023/06/29 00:52:29;;;;;;;49.47;30.95;;;18.60;99.90;;;;;;4956951;28;20495;-53
2023/06/29 00:54:56;;;;;;;46.85;30.63;;;18.60;99.90;;;;;;4956972;28;20074;-57
2023/06/29 00:57:22;;;;;;;51.10;31.30;;;18.60;99.90;;;;;;4953803;28;20432;-56
2023/06/29 00:59:48;;;;;;;45.95;29.55;;;18.70;99.90;;;;;;4955875;28;20161;-56
2023/06/29 01:02:15;;;;;;;48.85;31.15;;;18.70;99.90;;;;;;4955559;28;20049;-57
2023/06/29 01:04:45;;;;;;;47.75;30.52;;;18.60;99.90;;;;;;4955279;28;20047;-56
2023/06/29 01:07:37;;;;;;;49.17;31.40;;;18.70;99.90;;;;;;4936816;28;20402;-57
2023/06/29 01:10:04;;;;;;;43.17;29.60;;;18.70;99.90;;;;;;4956905;28;20034;-57
2023/06/29 01:12:31;;;;;;;47.55;30.98;;;18.60;99.90;;;;;;4937613;28;20463;-56
2023/06/29 01:14:58;;;;;;;45.60;30.13;;;18.60;99.90;;;;;;4954882;28;20043;-57
2023/06/29 01:17:27;;;;;;;48.78;31.33;;;18.60;99.90;;;;;;4955921;28;20046;-57
2023/06/29 01:19:54;;;;;;;50.83;33.22;;;18.70;99.90;;;;;;4957321;28;20050;-57
2023/06/29 01:22:53;;;;;;;49.95;31.50;;;18.60;99.90;;;;;;4957429;28;20110;-55
2023/06/29 01:25:20;;;;;;;44.72;30.02;;;18.70;99.90;;;;;;4930406;28;20047;-57
2023/06/29 01:27:46;;;;;;;51.33;32.13;;;18.60;99.90;;;;;;4941654;28;20061;-57
2023/06/29 01:30:13;;;;;;;46.13;31.48;;;18.60;99.90;;;;;;4956359;28;21738;-56
2023/06/29 01:32:39;;;;;;;46.65;31.60;;;18.60;99.90;;;;;;4956340;28;20061;-56
2023/06/29 01:35:07;;;;;;;52.88;32.13;;;18.60;99.90;;;;;;4956019;28;20670;-57
2023/06/29 01:37:39;;;;;;;48.80;32.42;;;18.60;99.90;;;;;;4956894;28;20518;-54
2023/06/29 01:40:08;;;;;;;47.40;31.27;;;18.60;99.90;;;;;;4958510;28;20069;-57
2023/06/29 01:42:35;;;;;;;52.63;32.83;;;18.60;99.90;;;;;;4944430;28;20109;-56
2023/06/29 01:45:04;;;;;;;46.60;30.73;;;18.60;99.90;;;;;;4943477;28;20047;-57
2023/06/29 01:47:31;;;;;;;46.35;31.40;;;18.60;99.90;;;;;;4950540;28;20077;-57
2023/06/29 01:49:58;;;;;;;48.92;30.73;;;18.60;99.90;;;;;;4954979;28;20484;-56
2023/06/29 01:52:25;;;;;;;48.95;31.48;;;18.60;99.90;;;;;;4954871;28;20509;-56
2023/06/29 01:54:51;;;;;;;50.53;32.30;;;18.60;99.90;;;;;;4954857;28;20039;-56
2023/06/29 01:57:16;;;;;;;52.17;30.50;;;18.60;99.90;;;;;;4958345;28;20039;-54
2023/06/29 01:59:44;;;;;;;50.28;32.45;;;18.60;99.90;;;;;;4958829;28;20039;-56
2023/06/29 02:02:10;;;;;;;52.60;32.10;;;18.60;99.90;;;;;;4957898;28;20390;-56
2023/06/29 02:04:35;;;;;;;51.75;32.10;;;18.60;99.90;;;;;;4961322;28;20047;-55
2023/06/29 02:07:01;;;;;;;50.63;31.33;;;18.60;99.90;;;;;;4954396;28;20066;-56
2023/06/29 02:09:27;;;;;;;56.30;32.67;;;18.60;99.90;;;;;;4960817;28;20071;-57
2023/06/29 02:11:53;;;;;;;44.05;30.10;;;18.60;99.90;;;;;;4957328;28;20118;-55
2023/06/29 02:14:18;;;;;;;51.58;32.25;;;18.60;99.90;;;;;;4958352;28;20070;-57
2023/06/29 02:16:46;;;;;;;53.28;32.80;;;18.60;99.90;;;;;;4961408;28;20037;-57
2023/06/29 02:19:12;;;;;;;44.78;29.45;;;18.60;99.90;;;;;;4960896;28;20129;-57
2023/06/29 02:21:38;;;;;;;49.55;31.98;;;18.60;99.90;;;;;;4961261;28;20472;-56
2023/06/29 02:24:04;;;;;;;48.30;31.60;;;18.60;99.90;;;;;;4962188;28;20129;-57
2023/06/29 02:26:30;;;;;;;52.55;32.45;;;18.60;99.90;;;;;;4959674;28;20050;-57
2023/06/29 02:28:56;;;;;;;49.55;31.17;;;18.60;99.90;;;;;;4957981;28;20039;-56
2023/06/29 02:31:21;;;;;;;46.75;31.17;;;18.60;99.90;;;;;;4942559;28;20052;-57
2023/06/29 02:33:48;;;;;;;53.22;32.17;;;18.60;99.90;;;;;;4958554;28;20169;-56
2023/06/29 02:36:15;;;;;;;50.42;32.97;;;18.60;99.90;;;;;;4945024;28;20086;-57
2023/06/29 02:38:42;;;;;;;51.38;31.90;;;18.50;99.90;;;;;;4961295;28;20039;-57
2023/06/29 02:41:07;;;;;;;50.85;33.53;;;18.60;99.90;;;;;;4962842;28;20046;-56
2023/06/29 02:43:33;;;;;;;44.25;30.50;;;18.50;99.90;;;;;;4958294;28;20035;-57
2023/06/29 02:45:59;;;;;;;49.55;30.80;;;18.60;99.90;;;;;;4960606;28;20051;-56
2023/06/29 02:48:25;;;;;;;50.30;32.20;;;18.50;99.90;;;;;;4960126;28;20034;-57
2023/06/29 02:50:52;;;;;;;46.92;31.02;;;18.50;99.90;;;;;;4959041;28;20036;-56
2023/06/29 02:53:17;;;;;;;55.08;32.10;;;18.50;99.90;;;;;;4958588;28;20027;-56
2023/06/29 02:55:43;;;;;;;51.40;30.80;;;18.50;99.90;;;;;;4958437;28;20046;-57
2023/06/29 02:58:09;;;;;;;47.67;30.50;;;18.50;99.90;;;;;;4959534;28;20440;-58
2023/06/29 03:00:34;;;;;;;46.67;32.67;;;18.50;99.90;;;;;;4957739;28;20674;-55
2023/06/29 03:03:00;;;;;;;45.70;29.38;;;18.50;99.90;;;;;;4959063;28;20081;-56
2023/06/29 03:05:26;;;;;;;46.75;29.70;;;18.50;99.90;;;;;;4958777;28;20069;-53
2023/06/29 03:07:52;;;;;;;45.13;29.38;;;18.50;99.90;;;;;;4958150;28;20035;-57
2023/06/29 03:10:17;;;;;;;47.38;29.90;;;18.50;99.90;;;;;;4955905;28;20410;-57
2023/06/29 03:12:43;;;;;;;50.85;30.60;;;18.50;99.90;;;;;;4941629;28;20038;-53
2023/06/29 03:15:09;;;;;;;42.97;29.33;;;18.50;99.90;;;;;;4959414;28;20043;-57
2023/06/29 03:17:35;;;;;;;46.42;30.13;;;18.50;99.90;;;;;;4940351;28;20050;-56
2023/06/29 03:20:01;;;;;;;44.08;29.63;;;18.50;99.90;;;;;;4959730;28;20090;-57
2023/06/29 03:22:26;;;;;;;46.55;30.30;;;18.50;99.90;;;;;;4960481;28;20058;-56
2023/06/29 03:24:53;;;;;;;50.60;30.38;;;18.50;99.90;;;;;;4959969;28;20097;-57
2023/06/29 03:27:19;;;;;;;49.17;29.92;;;18.50;99.90;;;;;;4958391;28;20070;-57
2023/06/29 03:29:49;;;;;;;47.90;30.73;;;18.50;99.90;;;;;;4959171;28;20043;-55
2023/06/29 03:32:14;;;;;;;51.05;30.23;;;18.50;99.90;;;;;;4953830;28;20114;-57
2023/06/29 03:34:40;;;;;;;48.47;29.88;;;18.50;99.90;;;;;;4959467;28;20122;-57
2023/06/29 03:37:06;;;;;;;50.47;29.60;;;18.50;99.90;;;;;;4956942;28;20150;-56
2023/06/29 03:39:31;;;;;;;45.97;28.92;;;18.50;99.90;;;;;;4957651;28;20451;-57
2023/06/29 03:41:57;;;;;;;48.30;28.63;;;18.50;99.90;;;;;;4958911;28;20058;-57
2023/06/29 03:44:23;;;;;;;47.65;30.00;;;18.50;99.90;;;;;;4958815;28;20039;-57
2023/06/29 03:46:48;;;;;;;43.47;29.30;;;18.50;99.90;;;;;;4958759;28;20130;-54
2023/06/29 03:49:14;;;;;;;45.28;29.17;;;18.50;99.90;;;;;;4958057;28;20085;-56
2023/06/29 03:51:40;;;;;;;45.05;28.92;;;18.50;99.90;;;;;;4960361;28;20495;-55
2023/06/29 03:54:06;;;;;;;48.90;30.45;;;18.50;99.90;;;;;;4959187;28;20039;-56
2023/06/29 03:56:32;;;;;;;45.45;29.60;;;18.50;99.90;;;;;;4958811;28;20472;-58
2023/06/29 03:58:58;;;;;;;42.78;28.48;;;18.50;99.90;;;;;;4956950;28;20427;-56
2023/06/29 04:01:23;;;;;;;44.00;28.48;;;18.60;99.90;;;;;;4955163;28;20039;-55
2023/06/29 04:03:50;;;;;;;45.22;28.00;;;18.60;99.90;;;;;;4943808;28;20451;-57
2023/06/29 04:06:16;;;;;;;44.17;27.92;;;18.60;99.90;;;;;;4960192;28;20034;-57
2023/06/29 04:08:41;;;;;;;39.75;27.42;;;18.60;99.90;;;;;;4953368;28;20046;-56
2023/06/29 04:11:09;;;;;;;44.55;28.58;;;18.60;99.90;;;;;;4960027;28;20387;-55
2023/06/29 04:13:34;;;;;;;38.00;25.73;;;18.60;99.90;;;;;;4956455;28;20141;-57
2023/06/29 04:16:00;;;;;;;43.40;27.83;;;18.60;99.90;;;;;;4958578;28;20511;-56
2023/06/29 04:18:26;;;;;;;47.03;27.15;;;18.60;99.90;;;;;;4957373;28;20078;-57
2023/06/29 04:20:53;;;;;;;39.47;26.40;;;18.70;99.90;;;;;;4956935;28;20042;-57
2023/06/29 04:23:19;;;;;;;39.38;26.63;;;18.60;99.90;;;;;;4955420;28;20046;-57
2023/06/29 04:25:44;;;;;;;44.42;27.27;;;18.70;99.90;;;;;;4957659;28;20582;-57
2023/06/29 04:28:13;;;;;;;38.63;26.33;;;18.60;99.90;;;;;;4956830;28;20074;-57
2023/06/29 04:30:43;;;;;;;39.97;27.38;;;18.70;99.90;;;;;;4957910;28;20053;-56
2023/06/29 04:33:14;;;;;;;38.38;26.63;;;18.70;99.90;;;;;;4954949;28;20178;-57
2023/06/29 04:35:44;;;;;;;38.35;25.50;;;18.70;99.90;;;;;;4957521;28;20586;-57
2023/06/29 04:38:11;;;;;;;44.20;25.92;;;18.80;99.90;;;;;;4955110;28;20405;-56
2023/06/29 04:40:37;;;;;;;40.65;25.75;;;18.80;99.90;;;;;;4956382;28;20395;-57
2023/06/29 04:43:04;;;;;;;37.97;25.98;;;18.80;99.90;;;;;;4957919;28;20515;-55
2023/06/29 04:45:31;;;;;;;39.85;25.92;;;18.90;99.90;;;;;;4957012;28;20137;-56
2023/06/29 04:47:58;;;;;;;39.35;25.50;;;18.90;99.90;;;;;;4952761;28;20083;-57
2023/06/29 04:50:25;;;;;;;38.22;24.77;;;18.90;99.90;;;;;;4954839;28;20039;-57
2023/06/29 04:53:09;;;;;;;37.28;24.35;;;19.00;99.90;;;;;;4941758;28;20043;-57
2023/06/29 04:55:36;;;;;;;40.53;26.20;;;19.00;99.90;;;;;;4956558;28;20081;-55
2023/06/29 04:58:03;;;;;;;35.67;23.25;;;19.10;99.90;;;;;;4956846;28;20047;-56
2023/06/29 05:00:29;;;;;;;38.83;24.70;;;19.10;99.90;;;;;;4956697;28;20050;-55
2023/06/29 05:02:55;;;;;;;39.60;24.60;;;19.20;99.90;;;;;;4954897;28;20113;-57
2023/06/29 05:05:21;;;;;;;38.67;24.63;;;19.20;99.90;;;;;;4961102;28;20034;-57
2023/06/29 05:07:47;;;;;;;37.60;23.85;;;19.20;99.90;;;;;;4939492;28;20105;-57
2023/06/29 05:10:13;;;;;;;34.42;22.92;;;19.20;99.90;;;;;;4957427;28;20517;-56
2023/06/29 05:12:39;;;;;;;35.00;22.48;;;19.20;99.90;;;;;;4959090;28;20062;-57
2023/06/29 05:15:05;;;;;;;36.08;23.65;;;19.20;99.90;;;;;;4934710;28;20039;-57
2023/06/29 05:17:31;;;;;;;40.15;23.23;;;19.20;99.90;;;;;;4956377;28;20109;-57
2023/06/29 05:19:57;;;;;;;35.20;22.67;;;19.20;99.90;;;;;;4954026;28;20841;-57
2023/06/29 05:22:23;;;;;;;32.15;21.42;;;19.20;99.90;;;;;;4938239;28;20054;-56
2023/06/29 05:24:49;;;;;;;37.30;23.35;;;19.30;99.90;;;;;;4953584;28;20042;-57
2023/06/29 05:27:14;;;;;;;33.33;22.10;;;19.30;99.90;;;;;;4951723;28;20085;-57
2023/06/29 05:29:40;;;;;;;32.38;21.85;;;19.30;99.90;;;;;;4953463;28;20065;-57
2023/06/29 05:32:06;;;;;;;35.95;22.42;;;19.30;99.90;;;;;;4942038;28;20078;-57
2023/06/29 05:34:32;;;;;;;32.55;21.67;;;19.40;99.90;;;;;;4944642;28;20039;-57
2023/06/29 05:36:57;;;;;;;30.42;20.92;;;19.40;99.90;;;;;;4958137;28;20476;-54
2023/06/29 05:39:23;;;;;;;30.67;20.67;;;19.50;99.90;;;;;;4963444;28;20080;-57
2023/06/29 05:41:49;;;;;;;32.90;20.75;;;19.50;99.90;;;;;;4957960;28;20098;-57
2023/06/29 05:44:15;;;;;;;33.13;19.55;;;19.50;99.90;;;;;;4929996;28;20053;-57
2023/06/29 05:46:40;;;;;;;31.80;21.02;;;19.60;99.90;;;;;;4958800;28;20054;-57
2023/06/29 05:49:06;;;;;;;30.10;20.13;;;19.60;99.90;;;;;;4961292;28;20483;-57
2023/06/29 05:51:34;;;;;;;33.13;20.52;;;19.60;99.90;;;;;;4961578;28;20103;-57
2023/06/29 05:54:02;;;;;;;33.63;19.88;;;19.70;99.90;;;;;;4959658;28;20047;-57
2023/06/29 05:56:27;;;;;;;32.35;20.23;;;19.70;99.90;;;;;;4959543;28;20032;-56
2023/06/29 05:58:53;;;;;;;28.25;18.83;;;19.70;99.90;;;;;;4957403;28;20049;-56
2023/06/29 06:01:20;;;;;;;29.95;19.42;;;19.80;99.90;;;;;;4959715;28;20388;-57
2023/06/29 06:03:46;;;;;;;30.70;19.88;;;19.80;99.90;;;;;;4941320;28;20042;-57
2023/06/29 06:06:12;;;;;;;28.23;18.35;;;19.90;99.90;;;;;;4962666;28;20038;-57
2023/06/29 06:08:37;;;;;;;30.33;19.52;;;20.00;99.90;;;;;;4955028;28;20087;-56
2023/06/29 06:11:03;;;;;;;29.30;19.25;;;20.00;99.90;;;;;;4959376;28;20058;-55
2023/06/29 06:13:29;;;;;;;29.77;19.20;;;20.10;99.90;;;;;;4956747;28;20460;-55
2023/06/29 06:15:55;;;;;;;30.88;18.90;;;20.20;99.90;;;;;;4961211;28;20046;-55
2023/06/29 06:18:21;;;;;;;28.00;18.50;;;20.20;99.90;;;;;;4943158;28;20078;-56
2023/06/29 06:20:47;;;;;;;32.33;19.23;;;20.20;99.90;;;;;;4963236;28;20602;-54
2023/06/29 06:23:12;;;;;;;29.25;18.80;;;20.30;99.90;;;;;;4963363;28;20101;-56
2023/06/29 06:25:38;;;;;;;32.42;19.80;;;20.30;99.90;;;;;;4960527;28;20043;-54
2023/06/29 06:28:04;;;;;;;26.35;18.77;;;20.30;99.90;;;;;;4963577;28;20042;-56
2023/06/29 06:30:30;;;;;;;29.30;19.35;;;20.40;99.90;;;;;;4959264;28;20046;-55
2023/06/29 06:32:56;;;;;;;29.80;19.13;;;20.30;99.90;;;;;;4960963;28;20542;-56
2023/06/29 06:35:21;;;;;;;30.23;18.80;;;20.40;99.90;;;;;;4946884;28;20134;-55
2023/06/29 06:37:47;;;;;;;30.17;18.42;;;20.40;99.90;;;;;;4963647;28;20069;-56
2023/06/29 06:40:15;;;;;;;31.65;20.17;;;20.40;99.90;;;;;;4962860;28;20054;-55
2023/06/29 06:42:41;;;;;;;32.90;19.10;;;20.50;99.90;;;;;;4961354;28;20454;-55
2023/06/29 06:45:08;;;;;;;32.60;18.92;;;20.50;99.90;;;;;;4941601;28;20039;-55
2023/06/29 06:47:35;;;;;;;25.98;18.58;;;20.50;99.90;;;;;;4960966;28;20479;-54
2023/06/29 06:50:01;;;;;;;25.25;18.35;;;20.60;99.90;;;;;;4958751;28;20038;-56
2023/06/29 06:52:27;;;;;;;31.08;19.35;;;20.60;99.90;;;;;;4959776;28;20491;-55
2023/06/29 06:54:54;;;;;;;28.75;19.38;;;20.60;99.90;;;;;;4961496;28;20043;-55
2023/06/29 06:57:20;;;;;;;29.67;19.92;;;20.70;99.90;;;;;;4959409;28;20057;-55
2023/06/29 06:59:46;;;;;;;32.03;19.48;;;20.70;99.90;;;;;;4959171;28;20034;-56
2023/06/29 07:02:12;;;;;;;29.67;19.48;;;20.80;99.90;;;;;;4957953;28;20119;-55
2023/06/29 07:04:38;;;;;;;29.17;19.50;;;20.80;99.90;;;;;;4957938;28;20035;-56
2023/06/29 07:07:04;;;;;;;31.10;19.50;;;20.80;99.90;;;;;;4960107;28;20050;-56
2023/06/29 07:09:30;;;;;;;29.08;19.17;;;20.80;99.90;;;;;;4960837;28;20040;-55
2023/06/29 07:11:57;;;;;;;36.13;20.42;;;20.80;99.90;;;;;;4959319;28;20098;-54
2023/06/29 07:14:23;;;;;;;35.00;20.13;;;20.90;99.90;;;;;;4957763;28;20054;-56
2023/06/29 07:16:48;;;;;;;27.77;19.02;;;20.90;99.90;;;;;;4958565;28;20047;-55
2023/06/29 07:19:15;;;;;;;31.25;19.00;;;20.90;99.90;;;;;;4958297;28;20053;-55
2023/06/29 07:21:41;;;;;;;27.05;18.63;;;20.90;99.90;;;;;;4958404;28;20163;-55
2023/06/29 07:24:08;;;;;;;30.27;19.35;;;20.90;99.90;;;;;;4959874;28;20046;-55
2023/06/29 07:26:35;;;;;;;27.70;18.92;;;20.90;99.90;;;;;;4958325;28;20056;-56
2023/06/29 07:29:00;;;;;;;31.48;19.48;;;20.90;99.90;;;;;;4959540;28;20071;-55
2023/06/29 07:31:27;;;;;;;28.45;18.88;;;20.90;99.90;;;;;;4923940;28;20503;-55
2023/06/29 07:33:54;;;;;;;30.58;19.33;;;20.90;99.90;;;;;;4960438;28;20074;-56
2023/06/29 07:36:25;;;;;;;30.10;19.25;;;20.90;99.90;;;;;;4960570;28;20050;-55
2023/06/29 07:38:51;;;;;;;32.78;19.75;;;21.00;99.90;;;;;;4958929;28;20051;-55
2023/06/29 07:41:18;;;;;;;30.35;19.77;;;21.00;99.90;;;;;;4943463;28;20437;-55
2023/06/29 07:43:51;;;;;;;30.15;19.05;;;20.90;99.90;;;;;;4958282;28;20050;-56
2023/06/29 07:46:16;;;;;;;28.30;18.10;;;21.00;99.90;;;;;;4957397;28;20449;-54
2023/06/29 07:48:42;;;;;;;30.27;18.35;;;20.90;99.90;;;;;;4960204;28;20100;-55
2023/06/29 07:51:09;;;;;;;29.27;18.42;;;21.00;99.90;;;;;;4955633;28;20112;-56
2023/06/29 07:53:35;;;;;;;33.58;19.58;;;21.00;99.90;;;;;;4946531;28;20076;-55
2023/06/29 07:56:01;;;;;;;29.17;18.88;;;21.00;99.90;;;;;;4956353;28;20046;-55
2023/06/29 07:58:27;;;;;;;31.13;19.83;;;21.00;99.90;;;;;;4960652;28;20081;-56
2023/06/29 08:00:54;;;;;;;33.58;19.42;;;21.00;99.90;;;;;;4958831;28;20050;-52
2023/06/29 08:03:23;;;;;;;35.95;20.73;;;21.10;99.90;;;;;;4958334;28;20035;-55
2023/06/29 08:05:52;;;;;;;34.53;19.45;;;21.10;99.90;;;;;;4957941;28;20439;-56
2023/06/29 08:08:18;;;;;;;33.58;20.00;;;21.10;99.90;;;;;;4959288;28;20050;-56
2023/06/29 08:10:44;;;;;;;29.75;20.30;;;21.10;99.90;;;;;;4956259;28;20055;-55
2023/06/29 08:13:10;;;;;;;30.60;19.02;;;21.10;99.90;;;;;;4960558;28;20035;-55
2023/06/29 08:15:36;;;;;;;31.52;19.77;;;21.20;99.90;;;;;;4956116;28;20031;-55
2023/06/29 08:18:02;;;;;;;31.50;19.52;;;21.20;99.90;;;;;;4958890;28;20395;-56
2023/06/29 08:20:27;;;;;;;34.05;21.63;;;21.30;99.90;;;;;;4959431;28;20113;-55
2023/06/29 08:22:54;;;;;;;32.35;20.55;;;21.40;99.90;;;;;;4956094;28;20039;-55
2023/06/29 08:25:22;;;;;;;35.42;20.70;;;21.40;99.90;;;;;;4960357;28;20043;-54
2023/06/29 08:27:49;;;;;;;31.10;19.55;;;21.50;99.90;;;;;;4956991;28;20053;-55
2023/06/29 08:30:15;;;;;;;33.58;20.38;;;21.60;99.90;;;;;;4954534;28;20043;-56
2023/06/29 08:32:42;;;;;;;34.05;21.23;;;21.70;99.90;;;;;;4954702;28;20057;-56
2023/06/29 08:35:09;;;;;;;30.98;20.17;;;21.70;99.90;;;;;;4956740;28;20055;-55
2023/06/29 08:37:35;;;;;;;30.83;20.40;;;21.80;99.90;;;;;;4957808;28;20058;-56
2023/06/29 08:40:02;;;;;;;31.90;20.23;;;21.90;99.90;;;;;;4957305;28;20412;-56
2023/06/29 08:42:27;;;;;;;29.55;19.52;;;22.00;99.90;;;;;;4957852;28;20102;-56
2023/06/29 08:44:53;;;;;;;33.03;20.25;;;22.00;99.90;;;;;;4957864;28;20078;-54
2023/06/29 08:47:20;;;;;;;32.97;20.55;;;22.10;99.90;;;;;;4956636;28;20058;-56
2023/06/29 08:49:46;;;;;;;30.02;20.48;;;22.10;99.90;;;;;;4956757;28;20042;-55
2023/06/29 08:52:16;;;;;;;34.22;21.88;;;22.20;99.90;;;;;;4961147;28;20039;-55
2023/06/29 08:54:45;;;;;;;35.15;20.95;;;22.20;99.90;;;;;;4957901;28;20046;-56
2023/06/29 08:57:11;;;;;;;31.95;20.45;;;22.20;99.90;;;;;;4956997;28;20070;-55
2023/06/29 08:59:37;;;;;;;37.97;22.65;;;22.10;99.90;;;;;;4957348;28;20074;-56
2023/06/29 09:02:06;;;;;;;36.40;21.33;;;22.10;99.90;;;;;;4956210;28;20042;-55
2023/06/29 09:04:32;;;;;;;32.47;21.65;;;22.00;99.90;;;;;;4958435;28;20039;-56
2023/06/29 09:06:58;;;;;;;34.00;21.15;;;22.00;99.90;;;;;;4955479;28;20101;-56
2023/06/29 09:09:24;;;;;;;34.15;21.25;;;22.00;99.90;;;;;;4941682;28;20050;-55
2023/06/29 09:11:51;;;;;;;33.75;22.23;;;22.00;99.90;;;;;;4959280;28;20108;-55
2023/06/29 09:14:17;;;;;;;33.47;21.92;;;22.10;99.90;;;;;;4958133;28;20045;-56
2023/06/29 09:16:54;;;;;;;33.72;21.20;;;22.10;99.90;;;;;;4940576;28;20038;-55
2023/06/29 09:19:21;;;;;;;31.92;21.15;;;22.10;99.90;;;;;;4934637;28;20038;-56
2023/06/29 09:21:47;;;;;;;35.35;21.85;;;22.10;99.90;;;;;;4957908;28;20134;-55
2023/06/29 09:24:14;;;;;;;34.55;23.48;;;22.20;99.90;;;;;;4957276;28;20094;-56
2023/06/29 09:26:40;;;;;;;39.03;24.45;;;22.40;99.90;;;;;;4959093;28;20381;-56
2023/06/29 09:29:06;;;;;;;33.47;23.05;;;22.40;99.90;;;;;;4956447;28;20081;-55
2023/06/29 09:31:33;;;;;;;32.53;21.55;;;22.40;99.90;;;;;;4957953;28;20586;-54
2023/06/29 09:34:18;;;;;;;35.40;24.17;;;22.40;99.90;;;;;;4957738;28;20039;-56
2023/06/29 09:36:45;;;;;;;33.65;22.88;;;22.40;99.90;;;;;;4939921;28;20511;-56
2023/06/29 09:39:12;;;;;;;34.38;23.88;;;22.30;99.90;;;;;;4936516;28;20097;-55
2023/06/29 09:41:48;;;;;;;34.50;22.48;;;22.30;99.90;;;;;;4960151;28;20032;-55
2023/06/29 09:44:19;;;;;;;34.30;23.58;;;22.30;99.90;;;;;;4957128;28;20058;-56
2023/06/29 09:47:04;;;;;;;35.40;22.85;;;22.20;99.90;;;;;;4939403;28;20038;-56
2023/06/29 09:49:31;;;;;;;33.78;22.65;;;22.20;99.90;;;;;;4959256;28;20113;-56
2023/06/29 09:52:04;;;;;;;37.53;24.20;;;22.20;99.90;;;;;;4958694;28;20047;-55
2023/06/29 09:54:36;;;;;;;33.55;22.65;;;22.20;99.90;;;;;;4956537;28;20039;-56
2023/06/29 09:57:05;;;;;;;30.13;22.45;;;22.20;99.90;;;;;;4956147;28;20235;-56
2023/06/29 09:59:31;;;;;;;33.55;23.30;;;22.20;99.90;;;;;;4958107;28;20042;-55
2023/06/29 10:01:57;;;;;;;32.97;23.65;;;22.20;99.90;;;;;;4939736;28;20077;-56
2023/06/29 10:04:26;;;;;;;35.53;22.80;;;22.10;99.90;;;;;;4958556;28;20440;-55
2023/06/29 10:07:07;;;;;;;32.40;21.20;;;22.10;99.90;;;;;;4955012;28;20051;-56
2023/06/29 10:09:37;;;;;;;35.33;22.85;;;22.10;99.90;;;;;;4954869;28;20047;-56
2023/06/29 10:12:04;;;;;;;29.30;21.05;;;22.00;99.90;;;;;;4957545;28;20035;-56
2023/06/29 10:14:32;;;;;;;31.52;22.08;;;22.00;99.90;;;;;;4957985;28;20038;-55
2023/06/29 10:16:59;;;;;;;34.83;22.73;;;22.00;99.90;;;;;;4960579;28;20046;-56
2023/06/29 10:19:26;;;;;;;32.88;20.85;;;22.00;99.90;;;;;;4948561;28;20504;-56
2023/06/29 10:21:59;;;;;;;31.10;20.83;;;22.00;99.90;;;;;;4960186;28;20050;-56
2023/06/29 10:24:32;;;;;;;28.33;20.65;;;21.90;99.90;;;;;;4960404;28;20046;-55
2023/06/29 10:26:58;;;;;;;30.98;22.27;;;21.90;99.90;;;;;;4957167;28;20054;-56
2023/06/29 10:29:24;;;;;;;34.63;22.65;;;21.80;99.90;;;;;;4960526;28;20088;-56
2023/06/29 10:31:57;;;;;;;31.33;23.05;;;21.80;99.90;;;;;;4959507;28;20035;-55
2023/06/29 10:34:25;;;;;;;32.47;22.38;;;21.70;99.90;;;;;;4962161;28;20042;-56
2023/06/29 10:36:52;;;;;;;33.20;23.02;;;21.70;99.90;;;;;;4960279;28;20480;-56
2023/06/29 10:39:42;;;;;;;35.42;23.77;;;21.60;99.90;;;;;;4960960;28;20050;-54
2023/06/29 10:42:24;;;;;;;34.75;22.98;;;21.60;99.90;;;;;;4962389;28;20050;-56
2023/06/29 10:44:50;;;;;;;32.85;23.98;;;21.60;99.90;;;;;;4960257;28;20527;-55
2023/06/29 10:47:37;;;;;;;34.38;24.35;;;21.50;99.90;;;;;;4957728;28;20416;-55
2023/06/29 10:50:09;;;;;;;37.53;25.42;;;21.40;99.90;;;;;;4935857;28;20095;-56
2023/06/29 10:52:35;;;;;;;41.92;25.42;;;21.40;99.90;;;;;;4960348;28;20233;-55
2023/06/29 10:55:20;;;;;;;40.65;25.23;;;21.30;99.90;;;;;;4958671;28;20039;-55
2023/06/29 10:57:47;;;;;;;35.65;26.33;;;21.30;99.90;;;;;;4958542;28;20043;-55
2023/06/29 11:00:14;;;;;;;34.15;24.65;;;21.30;99.90;;;;;;4958899;28;20569;-55
2023/06/29 11:02:41;;;;;;;39.33;25.55;;;21.30;99.90;;;;;;4958744;28;20039;-56
2023/06/29 11:05:11;;;;;;;36.55;25.60;;;21.40;99.90;;;;;;4964202;28;20047;-55
2023/06/29 11:07:38;;;;;;;35.67;25.58;;;21.50;99.90;;;;;;4962016;28;20031;-56
2023/06/29 11:10:04;;;;;;;35.08;24.67;;;21.60;99.90;;;;;;4956886;28;20129;-56
2023/06/29 11:12:29;;;;;;;35.15;25.05;;;21.80;99.90;;;;;;4958590;28;20379;-56
2023/06/29 11:14:55;;;;;;;35.30;25.02;;;22.00;99.90;;;;;;4957417;28;20035;-55
2023/06/29 11:17:22;;;;;;;34.63;23.15;;;22.10;99.90;;;;;;4957419;28;20114;-56
2023/06/29 11:19:49;;;;;;;30.90;22.55;;;22.20;99.90;;;;;;4961111;28;20046;-55
2023/06/29 11:22:18;;;;;;;33.22;23.40;;;22.30;99.90;;;;;;4960470;28;20142;-56
2023/06/29 11:24:44;;;;;;;31.73;22.55;;;22.40;99.90;;;;;;4961084;28;20459;-56
2023/06/29 11:27:10;;;;;;;34.22;23.02;;;22.40;99.90;;;;;;4960090;28;20051;-56
2023/06/29 11:29:36;;;;;;;32.25;24.13;;;22.30;99.90;;;;;;4957072;28;20039;-54
2023/06/29 11:32:02;;;;;;;33.63;23.95;;;22.30;99.90;;;;;;4959488;28;20042;-55
2023/06/29 11:34:28;;;;;;;34.55;24.85;;;22.30;99.90;;;;;;4957328;28;20038;-56
2023/06/29 11:36:55;;;;;;;35.83;25.30;;;22.30;99.90;;;;;;4957418;28;20067;-56
2023/06/29 11:39:23;;;;;;;36.50;25.55;;;22.30;99.90;;;;;;4959092;28;20039;-55
2023/06/29 11:41:49;;;;;;;37.17;25.20;;;22.30;99.90;;;;;;4941578;28;20047;-56
2023/06/29 11:44:15;;;;;;;40.67;24.95;;;22.30;99.90;;;;;;4954583;28;20050;-55
2023/06/29 11:46:45;;;;;;;36.17;25.85;;;22.30;99.90;;;;;;4958720;28;20054;-55
2023/06/29 11:49:11;;;;;;;36.33;25.95;;;22.40;99.90;;;;;;4959566;28;20047;-56
2023/06/29 11:51:38;;;;;;;39.30;25.38;;;22.40;99.90;;;;;;4960228;28;20053;-56
2023/06/29 11:54:05;;;;;;;36.90;25.02;;;22.50;99.90;;;;;;4943981;28;20043;-55
2023/06/29 11:56:38;;;;;;;37.08;26.85;;;22.80;99.90;;;;;;4957610;28;20066;-55
2023/06/29 11:59:06;;;;;;;44.33;28.15;;;23.00;99.90;;;;;;4959272;28;20051;-54
2023/06/29 12:01:32;;;;;;;38.65;27.02;;;23.20;99.90;;;;;;4958546;28;20082;-56
2023/06/29 12:03:58;;;;;;;47.45;28.17;;;23.20;99.90;;;;;;4958133;28;20480;-55
2023/06/29 12:06:24;;;;;;;42.72;28.52;;;23.20;99.90;;;;;;4958307;28;20042;-56
2023/06/29 12:08:52;;;;;;;40.20;28.50;;;23.30;99.90;;;;;;4955940;28;20058;-56
2023/06/29 12:11:19;;;;;;;41.38;28.25;;;23.40;99.90;;;;;;4957957;28;20086;-56
2023/06/29 12:13:46;;;;;;;42.67;27.13;;;23.40;99.90;;;;;;4941134;28;20400;-56
2023/06/29 12:16:12;;;;;;;41.65;27.65;;;23.40;99.90;;;;;;4957407;28;20452;-56
2023/06/29 12:18:38;;;;;;;37.35;25.70;;;23.40;99.90;;;;;;4954996;28;20043;-55
2023/06/29 12:21:04;;;;;;;39.15;27.52;;;23.40;99.90;;;;;;4957908;28;20063;-55
2023/06/29 12:23:29;;;;;;;38.30;27.50;;;23.50;99.90;;;;;;4958042;28;20500;-56
2023/06/29 12:25:55;;;;;;;41.10;28.10;;;23.70;99.90;;;;;;4958539;28;20051;-56
2023/06/29 12:28:21;;;;;;;40.28;27.40;;;23.90;99.90;;;;;;4957607;28;20047;-57